Nearby METAR Reports

 

K9MN - St Mary Hospital, Minnesota, USA
Distance from station: SW 3mi, 4km
Updated: 07/21/2018 3:19pm
Mostly cloudy
Mostly cloudy
 Wind from N
Wind: N 9 mph , 15 km/h, Gust: 16 mph , 26 km/h
Temperature: 79°F , 26°C
Dew Point: 59°F , 15°C
Humidity: 51%
Barometer: 30.00 inHg , 1015.9 hPa
Clouds: Mostly cloudy
Visibility: 10 miles , 16 km
Cloud details: Partly cloudy 3900 ft
Mostly cloudy 6000 ft
2018/07/21 20:19 K9MN 212019Z AUTO 36008G14KT 310V030 10SM SCT039 BKN060 26/15 A3000 RMK AO1
KRST - Rochester, Minnesota, USA
Distance from station: SSW 10mi, 16km
Updated: 07/21/2018 3:54pm
Mostly cloudy
Mostly cloudy
 Wind from N
Wind: N 18 mph , 30 km/h, Gust: 24 mph , 39 km/h
Temperature: 75°F , 24°C
Dew Point: 63°F , 17°C
Humidity: 65%
Barometer: 30.01 inHg , 1016.3 hPa
Clouds: Mostly cloudy
Visibility: 10 miles , 16 km
Cloud details: Few Clouds 3900 ft
Mostly cloudy 6000 ft
2018/07/21 20:54 KRST 212054Z 36016G21KT 10SM FEW039 BKN060 24/17 A3001 RMK AO2 SLP156 T02440172 53003
 
KTOB - Dodge Center, Minnesota, USA
Distance from station: W 19mi, 30km
Updated: 07/21/2018 4:15pm
Partly cloudy
Partly cloudy
 Wind from N
Wind: N 13 mph , 20 km/h
Temperature: 77°F , 25°C
Dew Point: 63°F , 17°C
Humidity: 61%
Barometer: 30.02 inHg , 1016.6 hPa
Clouds: Partly cloudy
Visibility: 10 miles , 16 km
Cloud details: Partly cloudy 3900 ft
Partly cloudy 5500 ft
2018/07/21 21:15 KTOB 212115Z AUTO 36011KT 10SM SCT039 SCT055 25/17 A3002 RMK AO2
KFKA - Preston, Minnesota, USA
Distance from station: SSE 28mi, 45km
Updated: 07/21/2018 4:15pm
Mostly cloudy
Mostly cloudy
 Wind from N
Wind: N 13 mph , 20 km/h, Gust: 18 mph , 30 km/h
Temperature: 73°F , 23°C
Dew Point: 61°F , 16°C
Humidity: 65%
Barometer: 30.00 inHg , 1015.9 hPa
Clouds: Mostly cloudy
Visibility: 10 miles , 16 km
Cloud details: Partly cloudy 3700 ft
Partly cloudy 4600 ft
Mostly cloudy 7000 ft
2018/07/21 21:15 KFKA 212115Z AUTO 36011G16KT 10SM SCT037 SCT046 BKN070 23/16 A3000 RMK AO2 T02310164
 
KAUM - Austin Muni, Minnesota, USA
Distance from station: SW 35mi, 57km
Updated: 07/21/2018 4:15pm
Mostly cloudy
Mostly cloudy
 Wind from N
Wind: N 13 mph , 20 km/h, Gust: 20 mph , 31 km/h
Temperature: 77°F , 25°C
Dew Point: 63°F , 17°C
Humidity: 61%
Barometer: 30.01 inHg , 1016.3 hPa
Clouds: Mostly cloudy
Visibility: 10 miles , 16 km
Cloud details: Partly cloudy 4000 ft
Mostly cloudy 5000 ft
2018/07/21 21:15 KAUM 212115Z AUTO 35011G17KT 10SM SCT040 BKN050 25/17 A3001 RMK AO2
KONA - Winona Muni, Minnesota, USA
Distance from station: E 37mi, 59km
Updated: 07/21/2018 4:15pm
Overcast
Overcast
 Wind from N
Wind: N 7 mph , 11 km/h
Temperature: 79°F , 26°C
Dew Point: 63°F , 17°C
Humidity: 58%
Barometer: 29.96 inHg , 1014.6 hPa
Clouds: Overcast
Visibility: 10 miles , 16 km
Cloud details: Partly cloudy 4100 ft
Partly cloudy 5500 ft
Overcast 7500 ft
2018/07/21 21:15 KONA 212115Z AUTO 35006KT 10SM SCT041 SCT055 OVC075 26/17 A2996 RMK AO2
 
KRGK - Red Wing, Minnesota, USA
Distance from station: N 38mi, 61km
Updated: 07/21/2018 4:15pm
Mostly cloudy
Mostly cloudy
 Wind from NNE
Wind: NNE 8 mph , 13 km/h
Temperature: 81°F , 27°C
Heat Index: 81°F , 27°C
Dew Point: 57°F , 14°C
Humidity: 45%
Barometer: 29.98 inHg , 1015.2 hPa
Clouds: Mostly cloudy
Visibility: 10 miles , 16 km
Cloud details: Mostly cloudy 8000 ft
2018/07/21 21:15 KRGK 212115Z AUTO 02007KT 212V042 10SM BKN080 27/14 A2998 RMK AO2
KOWA - Owatonna, Minnesota, USA
Distance from station: W 41mi, 65km
Updated: 07/21/2018 4:11pm
Partly cloudy
Partly cloudy
 Wind from N
Wind: N 14 mph , 22 km/h, Gust: 18 mph , 30 km/h
Temperature: 81°F , 27°C
Heat Index: 82°F , 28°C
Dew Point: 63°F , 17°C
Humidity: 54%
Barometer: 30.03 inHg , 1016.9 hPa
Clouds: Partly cloudy
Visibility: 10 miles , 16 km
Cloud details: Partly cloudy 4800 ft
2018/07/21 21:11 KOWA 212111Z AUTO 36012G16KT 10SM SCT048 27/17 A3003 RMK AO2
 
KSYN - Stanton, Minnesota, USA
Distance from station: NW 42mi, 68km
Updated: 07/21/2018 4:15pm
Overcast
Overcast
 Wind from N
Wind: N 12 mph , 19 km/h
Temperature: 79°F , 26°C
Dew Point: 63°F , 17°C
Humidity: 58%
Barometer: 30.00 inHg , 1015.9 hPa
Clouds: Overcast
Visibility: 10 miles , 16 km
Cloud details: Partly cloudy 4300 ft
Overcast 7000 ft
2018/07/21 21:15 KSYN 212115Z AUTO 36010KT 10SM SCT043 OVC070 26/17 A3000 RMK AO2 T02550171
KFBL - Faribault Muni, Minnesota, USA
Distance from station: WNW 48mi, 77km
Updated: 07/21/2018 4:15pm
Partly cloudy
Partly cloudy
 Wind from N
Wind: N 8 mph , 13 km/h
Temperature: 81°F , 27°C
Heat Index: 82°F , 28°C
Dew Point: 63°F , 17°C
Humidity: 54%
Barometer: 30.03 inHg , 1016.9 hPa
Clouds: Partly cloudy
Visibility: 10 miles , 16 km
Cloud details: Partly cloudy 4600 ft
2018/07/21 21:15 KFBL 212115Z AUTO 36007KT 10SM SCT046 27/17 A3003 RMK AO2